AUA25 LOWW-VTBS
Flight info
| Callsign | AUA25 |
|---|---|
| Flight time | N/A |
| Altitude | 35000 |
| Route | ADAMA DCT VEDER DCT ALAMU DCT EPARI DCT BUDOP DCT UDROS/N0483F370 UN743 GAKSU UT310 SIN UN644 KARDE UL851 TBN UM11 REBLO M11 LUSAL M747 SULEL N449 DUKAN B449 ZAMIR/N0481F390 B449 RANAH L750 MERUN G452 LKN R460 BBN P646 JJS/N0481F410 Z12 DOPID P646 PTN N895 BETNO G463 TARED DCT WILLA WILLA1C |
| Aircraft | B772/H-SDE2E3FGHIJ5LORVWXY/LB1D1 |
Departure
| Time | 2026-04-23 11:14 |
|---|---|
| Airport | Vienna International Airport (LOWW) |
Arrival
| Time | N/A |
|---|---|
| Airport | Suvarnabhumi Airport (VTBS) |
| Time | Latitude | Longitude | Altitude | Speed | Heading |
|---|---|---|---|---|---|
| 2026-04-23 10:39 | 48.11681 | 16.56838 | 622 ft | 0 kts | 25° |
| 2026-04-23 10:40 | 48.11685 | 16.56841 | 629 ft | 0 kts | 26° |
| 2026-04-23 10:40 | 48.11685 | 16.56840 | 629 ft | 0 kts | 26° |
| 2026-04-23 10:42 | 48.11684 | 16.56840 | 629 ft | 0 kts | 26° |
| 2026-04-23 10:46 | 48.11683 | 16.56840 | 629 ft | 0 kts | 26° |
| 2026-04-23 10:46 | 48.11683 | 16.56839 | 629 ft | 0 kts | 26° |
| 2026-04-23 10:50 | 48.11682 | 16.56839 | 629 ft | 0 kts | 26° |
| 2026-04-23 10:52 | 48.11682 | 16.56838 | 629 ft | 0 kts | 26° |
| 2026-04-23 10:54 | 48.11681 | 16.56838 | 613 ft | 0 kts | 26° |
| 2026-04-23 10:57 | 48.11681 | 16.56837 | 631 ft | 0 kts | 26° |
| 2026-04-23 10:58 | 48.11680 | 16.56837 | 631 ft | 0 kts | 26° |
| 2026-04-23 11:03 | 48.11679 | 16.56837 | 612 ft | 0 kts | 26° |
| 2026-04-23 11:04 | 48.11679 | 16.56836 | 612 ft | 0 kts | 26° |
| 2026-04-23 11:06 | 48.11638 | 16.56794 | 626 ft | 4 kts | 57° |
| 2026-04-23 11:06 | 48.11631 | 16.56760 | 626 ft | 4 kts | 109° |
| 2026-04-23 11:06 | 48.11633 | 16.56754 | 626 ft | 4 kts | 116° |
| 2026-04-23 11:07 | 48.11633 | 16.56753 | 626 ft | 0 kts | 116° |
| 2026-04-23 11:09 | 48.11628 | 16.56767 | 622 ft | 0 kts | 116° |
| 2026-04-23 11:10 | 48.11628 | 16.56768 | 622 ft | 1 kts | 116° |
| 2026-04-23 11:10 | 48.11610 | 16.56822 | 620 ft | 11 kts | 116° |
| 2026-04-23 11:10 | 48.11556 | 16.56922 | 625 ft | 11 kts | 164° |
| 2026-04-23 11:11 | 48.11465 | 16.56873 | 626 ft | 19 kts | 204° |
| 2026-04-23 11:11 | 48.11358 | 16.56847 | 624 ft | 15 kts | 146° |
| 2026-04-23 11:11 | 48.11306 | 16.56977 | 619 ft | 15 kts | 115° |
| 2026-04-23 11:11 | 48.11261 | 16.57115 | 624 ft | 15 kts | 116° |
| 2026-04-23 11:12 | 48.11217 | 16.57252 | 619 ft | 14 kts | 116° |
| 2026-04-23 11:12 | 48.11175 | 16.57381 | 626 ft | 13 kts | 115° |
| 2026-04-23 11:12 | 48.11137 | 16.57501 | 620 ft | 14 kts | 115° |
| 2026-04-23 11:12 | 48.11090 | 16.57637 | 621 ft | 9 kts | 131° |
| 2026-04-23 11:13 | 48.11003 | 16.57619 | 616 ft | 18 kts | 198° |
| 2026-04-23 11:13 | 48.10925 | 16.57554 | 624 ft | 8 kts | 220° |
| 2026-04-23 11:13 | 48.10935 | 16.57474 | 619 ft | 12 kts | 294° |
| 2026-04-23 11:13 | 48.11019 | 16.57211 | 617 ft | 57 kts | 296° |
| 2026-04-23 11:14 | 48.11289 | 16.56383 | 623 ft | 118 kts | 296° |
| 2026-04-23 11:14 | 48.11710 | 16.55044 | 718 ft | 155 kts | 301° |
| 2026-04-23 11:14 | 48.12190 | 16.53582 | 1310 ft | 159 kts | 299° |
| 2026-04-23 11:14 | 48.12542 | 16.52043 | 2038 ft | 164 kts | 275° |
| 2026-04-23 11:15 | 48.12214 | 16.50293 | 2516 ft | 191 kts | 244° |
| 2026-04-23 11:15 | 48.11083 | 16.48912 | 2614 ft | 232 kts | 209° |
| 2026-04-23 11:15 | 48.09460 | 16.48491 | 3139 ft | 239 kts | 185° |
| 2026-04-23 11:15 | 48.07793 | 16.48578 | 3638 ft | 244 kts | 182° |
| 2026-04-23 11:16 | 48.06081 | 16.48626 | 4050 ft | 248 kts | 184° |
| 2026-04-23 11:16 | 48.04311 | 16.48843 | 4221 ft | 272 kts | 166° |
| 2026-04-23 11:16 | 48.02636 | 16.50304 | 4451 ft | 282 kts | 138° |
| 2026-04-23 11:16 | 48.01112 | 16.52235 | 4871 ft | 292 kts | 141° |
| 2026-04-23 11:17 | 47.99455 | 16.54042 | 5452 ft | 296 kts | 145° |
| 2026-04-23 11:17 | 47.97756 | 16.55793 | 6039 ft | 295 kts | 137° |
| 2026-04-23 11:17 | 47.96514 | 16.58184 | 6489 ft | 290 kts | 105° |
| 2026-04-23 11:17 | 47.96161 | 16.61043 | 7160 ft | 276 kts | 82° |
| 2026-04-23 11:18 | 47.96444 | 16.63809 | 7716 ft | 267 kts | 66° |
| 2026-04-23 11:18 | 47.97060 | 16.66432 | 8218 ft | 269 kts | 64° |
| 2026-04-23 11:18 | 47.97689 | 16.69076 | 8779 ft | 271 kts | 64° |
| 2026-04-23 11:18 | 47.98301 | 16.71693 | 9356 ft | 271 kts | 64° |
| 2026-04-23 11:19 | 47.98922 | 16.74361 | 9933 ft | 273 kts | 64° |
| 2026-04-23 11:19 | 47.99544 | 16.77073 | 10266 ft | 282 kts | 66° |
| 2026-04-23 11:19 | 47.99943 | 16.80041 | 10358 ft | 302 kts | 78° |
| 2026-04-23 11:19 | 48.00113 | 16.83258 | 10495 ft | 320 kts | 81° |
| 2026-04-23 11:20 | 48.00251 | 16.86663 | 10630 ft | 338 kts | 81° |
| 2026-04-23 11:20 | 48.00408 | 16.90260 | 10809 ft | 355 kts | 81° |
| 2026-04-23 11:20 | 48.00592 | 16.93989 | 11303 ft | 364 kts | 80° |
| 2026-04-23 11:20 | 48.00798 | 16.97790 | 11954 ft | 369 kts | 80° |
| 2026-04-23 11:21 | 48.01010 | 17.01617 | 12772 ft | 371 kts | 80° |
| 2026-04-23 11:21 | 48.01132 | 17.05470 | 13538 ft | 375 kts | 87° |
| 2026-04-23 11:21 | 48.00905 | 17.09397 | 14194 ft | 383 kts | 92° |
| 2026-04-23 11:21 | 48.00533 | 17.13355 | 14856 ft | 386 kts | 93° |
| 2026-04-23 11:22 | 48.00150 | 17.17338 | 15530 ft | 388 kts | 93° |
| 2026-04-23 11:22 | 47.99795 | 17.21346 | 16175 ft | 391 kts | 92° |
| 2026-04-23 11:22 | 47.99469 | 17.25392 | 16772 ft | 395 kts | 91° |
| 2026-04-23 11:22 | 47.99155 | 17.29477 | 17378 ft | 398 kts | 91° |
| 2026-04-23 11:23 | 47.98835 | 17.33595 | 17977 ft | 401 kts | 92° |
| 2026-04-23 11:23 | 47.98273 | 17.37696 | 18470 ft | 408 kts | 101° |
| 2026-04-23 11:23 | 47.97405 | 17.41768 | 18922 ft | 414 kts | 104° |
| 2026-04-23 11:23 | 47.96431 | 17.45829 | 19420 ft | 417 kts | 105° |
| 2026-04-23 11:24 | 47.95442 | 17.49914 | 19920 ft | 419 kts | 105° |
| 2026-04-23 11:24 | 47.94470 | 17.54033 | 20378 ft | 422 kts | 104° |
| 2026-04-23 11:24 | 47.93516 | 17.58192 | 20832 ft | 426 kts | 104° |
| 2026-04-23 11:24 | 47.92572 | 17.62392 | 21248 ft | 429 kts | 104° |
| 2026-04-23 11:25 | 47.91628 | 17.66634 | 21694 ft | 432 kts | 104° |
| 2026-04-23 11:25 | 47.90680 | 17.70905 | 22129 ft | 435 kts | 104° |
| 2026-04-23 11:25 | 47.89727 | 17.75200 | 22579 ft | 438 kts | 104° |
| 2026-04-23 11:25 | 47.88764 | 17.79523 | 23014 ft | 441 kts | 104° |
| 2026-04-23 11:26 | 47.87793 | 17.83871 | 23435 ft | 444 kts | 104° |
| 2026-04-23 11:26 | 47.86813 | 17.88253 | 23829 ft | 447 kts | 105° |
| 2026-04-23 11:26 | 47.85825 | 17.92655 | 24183 ft | 450 kts | 105° |
| 2026-04-23 11:26 | 47.84826 | 17.97080 | 24562 ft | 452 kts | 105° |
| 2026-04-23 11:27 | 47.83671 | 18.01451 | 24931 ft | 456 kts | 111° |
| 2026-04-23 11:27 | 47.82316 | 18.05728 | 25308 ft | 458 kts | 112° |
| 2026-04-23 11:27 | 47.80935 | 18.10012 | 25652 ft | 461 kts | 112° |
| 2026-04-23 11:27 | 47.79556 | 18.14328 | 25979 ft | 463 kts | 111° |
| 2026-04-23 11:28 | 47.78188 | 18.18670 | 26323 ft | 465 kts | 111° |
| 2026-04-23 11:28 | 47.76821 | 18.23042 | 26659 ft | 467 kts | 111° |
| 2026-04-23 11:28 | 47.75475 | 18.27371 | 26998 ft | 468 kts | 110° |
| 2026-04-23 11:28 | 47.74323 | 18.31891 | 27297 ft | 467 kts | 103° |
| 2026-04-23 11:29 | 47.73492 | 18.36548 | 27628 ft | 466 kts | 98° |
| 2026-04-23 11:29 | 47.72970 | 18.41292 | 27981 ft | 465 kts | 92° |
| 2026-04-23 11:29 | 47.72634 | 18.46068 | 28310 ft | 466 kts | 92° |
| 2026-04-23 11:29 | 47.72294 | 18.50863 | 28597 ft | 468 kts | 92° |
| 2026-04-23 11:30 | 47.71941 | 18.55675 | 28878 ft | 470 kts | 92° |
| 2026-04-23 11:30 | 47.71575 | 18.60513 | 29153 ft | 472 kts | 93° |
| 2026-04-23 11:30 | 47.71199 | 18.65360 | 29404 ft | 474 kts | 93° |
| 2026-04-23 11:30 | 47.70815 | 18.70222 | 29656 ft | 475 kts | 93° |
| 2026-04-23 11:31 | 47.70427 | 18.75103 | 29899 ft | 477 kts | 93° |
| 2026-04-23 11:31 | 47.70036 | 18.80007 | 30133 ft | 478 kts | 93° |
| 2026-04-23 11:31 | 47.69645 | 18.84899 | 30414 ft | 477 kts | 94° |
| 2026-04-23 11:31 | 47.69248 | 18.89782 | 30725 ft | 476 kts | 94° |
| 2026-04-23 11:32 | 47.68645 | 18.94623 | 31007 ft | 478 kts | 101° |
| 2026-04-23 11:32 | 47.67642 | 18.99339 | 31282 ft | 480 kts | 107° |
| 2026-04-23 11:32 | 47.66344 | 19.03910 | 31553 ft | 483 kts | 113° |
| 2026-04-23 11:32 | 47.64725 | 19.08290 | 31848 ft | 483 kts | 116° |
| 2026-04-23 11:33 | 47.63053 | 19.12604 | 32136 ft | 483 kts | 116° |
| 2026-04-23 11:33 | 47.61380 | 19.16910 | 32438 ft | 481 kts | 116° |
| 2026-04-23 11:33 | 47.59717 | 19.21205 | 32795 ft | 480 kts | 116° |
| 2026-04-23 11:33 | 47.58065 | 19.25489 | 33124 ft | 478 kts | 116° |